KTVL/TVL METAR and TAF weather

Enter ICAO airport designator
Station Type Date Time Source
KTVL METAR 2020/04/07 07:53 UTC NOAA

KTVL 070753Z AUTO 00000KT 10SM FEW011 BKN034 OVC044 M01/M01 A2995 RMK AO2 SNE28 SLP135 P0000 T10061011 400501083


Station Type Date Time Source
KTVL Decoded METAR 2020/04/07 07:53 UTC NOAA

SOUTH LAKE TAHOE AIRPORT, CA, United States (KTVL) 38-53N 119-59W 1925M
Apr 07, 2020 - 03:53 AM EDT / 2020.04.07 0753 UTC
Wind: Calm:0
Visibility: 10 mile(s):0
Sky conditions: overcast
Precipitation last hour: A trace
Temperature: 30.9 F (-0.6 C)
Dew Point: 30.0 F (-1.1 C)
Relative Humidity: 96%
Pressure (altimeter): 29.95 in. Hg (1014 hPa)
ob: KTVL 070753Z AUTO 00000KT 10SM FEW011 BKN034 OVC044 M01/M01 A2995 RMK AO2 SNE28 SLP135 P0000 T10061011 400501083
cycle: 8

Station Type Date Time Source
KTVL TAF 2020/04/07 06:22 UTC NOAA

TAF KTVL 070520Z 0706/0806 00000KT 2SM -SN BR BKN010 OVC020
FM070900 VRB03KT P6SM VCSH BKN015 OVC030
FM071800 03009KT P6SM VCSH SCT020 BKN040

Example: see airport list